createdAt,value
2018-07-04T00:00:36.691Z,74.32
2018-07-04T00:01:36.594Z,74.53
2018-07-04T00:02:36.593Z,75.86
2018-07-04T00:03:36.572Z,76.07
2018-07-04T00:04:36.561Z,75.35
2018-07-04T00:05:36.548Z,74.32
2018-07-04T00:06:36.555Z,76.17
2018-07-04T00:07:37.192Z,75.96
2018-07-04T00:08:36.532Z,74.53
2018-07-04T00:09:36.525Z,74.57
2018-07-04T00:10:36.501Z,74.94
2018-07-04T00:11:36.512Z,75.76
2018-07-04T00:12:37.161Z,76.37
2018-07-04T00:13:36.469Z,76.17
2018-07-04T00:14:36.444Z,74.36
2018-07-04T00:16:46.260Z,75.18
2018-07-04T00:17:46.211Z,76.10
2018-07-04T00:18:46.158Z,75.90
2018-07-04T00:19:46.204Z,75.18
2018-07-04T00:20:46.128Z,74.57
2018-07-04T00:21:46.113Z,74.98
2018-07-04T00:22:46.148Z,76.00
2018-07-04T00:23:46.101Z,76.62
2018-07-04T00:24:46.085Z,75.08
2018-07-04T00:25:46.216Z,75.90
2018-07-04T00:26:46.064Z,74.57
2018-07-04T00:27:46.071Z,76.31
2018-07-04T00:28:46.031Z,76.20
2018-07-04T00:29:46.038Z,76.31
2018-07-04T00:31:57.312Z,76.00
2018-07-04T00:32:57.247Z,77.06
2018-07-04T00:33:57.268Z,76.41
2018-07-04T00:34:57.299Z,75.90
2018-07-04T00:35:57.182Z,76.10
2018-07-04T00:36:57.116Z,76.20
2018-07-04T00:37:57.112Z,76.45
2018-07-04T00:38:57.166Z,76.45
2018-07-04T00:39:57.059Z,74.49
2018-07-04T00:40:57.078Z,75.62
2018-07-04T00:41:57.055Z,76.45
2018-07-04T00:42:57.081Z,76.34
2018-07-04T00:43:57.028Z,77.88
2018-07-04T00:44:57.004Z,76.65
2018-07-04T00:45:57.057Z,77.58
2018-07-04T00:46:56.960Z,76.75
2018-07-04T00:47:56.957Z,76.04
2018-07-04T00:48:57.000Z,76.24
2018-07-04T00:49:56.938Z,76.96
2018-07-04T00:50:56.938Z,77.06
2018-07-04T00:51:56.949Z,75.93
2018-07-04T00:52:56.897Z,76.96
2018-07-04T00:53:56.930Z,76.55
2018-07-04T00:54:56.890Z,76.07
2018-07-04T00:55:56.872Z,76.17
2018-07-04T00:56:56.856Z,75.97
2018-07-04T00:57:56.844Z,75.15
2018-07-04T00:58:56.828Z,75.97
2018-07-04T00:59:56.841Z,76.10
2018-07-04T01:00:56.807Z,76.51
2018-07-04T01:01:56.793Z,76.51
2018-07-04T01:02:56.781Z,77.65
2018-07-04T01:03:56.792Z,77.40
2018-07-04T01:04:56.775Z,77.71
2018-07-04T01:05:56.752Z,78.64
2018-07-04T01:06:56.733Z,76.68
2018-07-04T01:07:56.718Z,76.93
2018-07-04T01:08:56.710Z,78.02
2018-07-04T01:09:56.757Z,77.10
2018-07-04T01:10:56.689Z,78.12
2018-07-04T01:11:56.678Z,77.51
2018-07-04T01:12:56.670Z,75.97
2018-07-04T01:13:56.660Z,78.02
2018-07-04T01:14:56.641Z,76.58
2018-07-04T01:15:56.704Z,75.87
2018-07-04T01:16:56.617Z,76.48
2018-07-04T01:18:07.325Z,76.17
2018-07-04T01:18:56.870Z,75.97
2018-07-04T01:19:57.014Z,76.72
2018-07-04T01:20:57.712Z,76.17
2018-07-04T01:21:57.077Z,76.00
2018-07-04T01:24:08.398Z,77.44
2018-07-04T01:25:09.120Z,78.06
2018-07-04T01:26:09.670Z,78.06
2018-07-04T01:27:08.296Z,78.27
2018-07-04T01:28:08.213Z,78.78
2018-07-04T01:29:09.993Z,77.75
2018-07-04T01:30:08.133Z,76.51
2018-07-04T01:31:30.296Z,77.34
2018-07-04T01:32:09.009Z,77.23
2018-07-04T01:33:09.125Z,76.82
2018-07-04T01:34:10.038Z,77.95
2018-07-04T01:35:09.116Z,77.65
2018-07-04T01:36:08.135Z,78.16
2018-07-04T01:37:09.547Z,77.95
2018-07-04T01:38:10.010Z,78.27
2018-07-04T01:39:09.157Z,78.67
2018-07-04T01:40:08.047Z,76.82
2018-07-04T01:41:09.048Z,76.86
2018-07-04T01:42:08.027Z,78.40
2018-07-04T01:43:08.046Z,77.95
2018-07-04T01:44:09.044Z,78.06
2018-07-04T01:45:08.075Z,78.71
2018-07-04T01:46:07.994Z,78.50
2018-07-04T01:47:09.055Z,78.09
2018-07-04T01:48:09.000Z,77.06
2018-07-04T01:49:08.938Z,76.76
2018-07-04T01:50:07.911Z,75.52
2018-07-04T01:51:08.520Z,76.59
2018-07-04T01:52:10.509Z,77.89
2018-07-04T01:53:08.924Z,78.40
2018-07-04T01:54:07.887Z,77.92
2018-07-04T01:55:08.544Z,77.82
2018-07-04T01:56:07.883Z,77.72
2018-07-04T01:57:07.865Z,77.06
2018-07-04T01:58:07.836Z,78.03
2018-07-04T01:59:07.898Z,76.28
2018-07-04T02:00:07.783Z,76.18
2018-07-04T02:01:07.822Z,78.03
2018-07-04T02:02:07.757Z,78.44
2018-07-04T02:03:09.032Z,78.54
2018-07-04T02:04:09.577Z,77.82
2018-07-04T02:05:07.788Z,79.16
2018-07-04T02:06:08.769Z,80.35
2018-07-04T02:07:07.760Z,78.64
2018-07-04T02:08:09.506Z,78.03
2018-07-04T02:09:08.698Z,78.54
2018-07-04T02:10:09.520Z,78.33
2018-07-04T02:11:07.665Z,78.81
2018-07-04T02:12:07.692Z,78.50
2018-07-04T02:13:08.531Z,77.99
2018-07-04T02:14:07.693Z,77.17
2018-07-04T02:15:07.634Z,75.83
2018-07-04T02:16:07.711Z,77.89
2018-07-04T02:17:07.606Z,77.37
2018-07-04T02:18:07.616Z,76.59
2018-07-04T02:19:07.625Z,78.23
2018-07-04T02:20:07.598Z,77.92
2018-07-04T02:21:08.724Z,78.40
2018-07-04T02:22:09.547Z,77.92
2018-07-04T02:23:08.523Z,78.23
2018-07-04T02:24:21.087Z,78.13
2018-07-04T02:25:07.706Z,78.64
2018-07-04T02:26:08.504Z,77.82
2018-07-04T02:27:08.522Z,78.03
2018-07-04T02:28:09.014Z,77.20
2018-07-04T02:29:08.459Z,78.23
2018-07-04T02:30:08.582Z,78.85
2018-07-04T02:31:09.111Z,77.92
2018-07-04T02:32:09.113Z,77.20
2018-07-04T02:33:08.589Z,76.59
2018-07-04T02:34:09.053Z,76.69
2018-07-04T02:36:23.556Z,78.03
2018-07-04T02:37:22.359Z,77.96
2018-07-04T02:38:22.368Z,78.68
2018-07-04T02:39:22.396Z,78.58
2018-07-04T02:40:23.885Z,79.30
2018-07-04T02:41:23.878Z,78.17
2018-07-04T02:42:23.848Z,78.78
2018-07-04T02:45:25.085Z,78.27
2018-07-04T02:47:59.712Z,79.88
2018-07-04T02:48:54.944Z,80.39
2018-07-04T02:49:52.980Z,80.49
2018-07-04T02:51:33.327Z,79.67
2018-07-04T02:51:53.222Z,79.16
2018-07-04T02:52:53.184Z,79.36
2018-07-04T02:54:03.604Z,79.19
2018-07-04T02:54:52.869Z,80.02
2018-07-04T02:55:52.949Z,80.22
2018-07-04T02:56:54.581Z,78.58
2018-07-04T02:57:55.340Z,78.64
2018-07-04T02:58:53.734Z,80.49
2018-07-04T02:59:52.707Z,78.85
2018-07-04T03:00:52.782Z,78.13
2018-07-04T03:01:55.361Z,78.13
2018-07-04T03:03:06.617Z,78.13
2018-07-04T03:03:53.005Z,80.29
2018-07-04T03:04:53.745Z,79.57
2018-07-04T03:05:52.694Z,78.64
2018-07-04T03:07:16.382Z,78.33
2018-07-04T03:07:56.360Z,78.23
2018-07-04T03:08:55.453Z,78.54
2018-07-04T03:09:52.619Z,80.39
2018-07-04T03:10:52.716Z,78.23
2018-07-04T03:11:52.603Z,78.13
2018-07-04T03:17:04.973Z,78.33
2018-07-04T03:18:08.889Z,78.75
2018-07-04T03:19:30.462Z,78.58
2018-07-04T03:20:06.558Z,78.58
2018-07-04T03:21:07.386Z,79.67
2018-07-04T03:22:05.846Z,78.78
2018-07-04T03:23:06.389Z,78.44
2018-07-04T03:24:07.406Z,78.78
2018-07-04T03:25:07.321Z,79.16
2018-07-04T03:26:04.742Z,80.49
2018-07-04T03:27:04.715Z,78.75
2018-07-04T03:28:05.739Z,77.92
2018-07-04T03:29:05.693Z,78.96
2018-07-04T03:30:05.356Z,78.33
2018-07-04T03:31:25.690Z,79.71
2018-07-04T03:32:04.661Z,80.80
2018-07-04T03:33:04.675Z,79.77
2018-07-04T03:34:04.676Z,80.29
2018-07-04T03:35:04.625Z,79.47
2018-07-04T03:36:04.632Z,78.85
2018-07-04T03:37:05.821Z,78.03
2018-07-04T03:38:06.370Z,78.23
2018-07-04T03:39:04.867Z,79.57
2018-07-04T03:40:05.586Z,80.29
2018-07-04T03:41:04.587Z,80.29
2018-07-04T03:42:04.572Z,79.88
2018-07-04T03:43:07.333Z,79.88
2018-07-04T03:44:04.853Z,80.29
2018-07-04T03:45:04.507Z,79.77
2018-07-04T03:46:26.591Z,80.49
2018-07-04T03:47:05.482Z,79.98
2018-07-04T03:48:04.462Z,79.26
2018-07-04T03:49:05.328Z,79.47
2018-07-04T03:50:30.438Z,78.03
2018-07-04T03:51:04.940Z,78.03
2018-07-04T03:52:06.384Z,78.33
2018-07-04T03:53:19.043Z,79.47
2018-07-04T03:54:04.461Z,79.98
2018-07-04T03:56:17.127Z,80.25
2018-07-04T03:57:17.911Z,78.64
2018-07-04T03:59:35.802Z,80.05
2018-07-04T04:00:36.057Z,80.46
2018-07-04T04:01:35.906Z,79.53
2018-07-04T04:02:35.614Z,80.25
2018-07-04T04:03:35.680Z,80.25
2018-07-04T04:04:35.580Z,80.25
2018-07-04T04:05:35.629Z,80.05
2018-07-04T04:06:35.574Z,78.81
2018-07-04T04:07:35.599Z,78.20
2018-07-04T04:08:41.278Z,78.78
2018-07-04T04:09:35.583Z,78.16
2018-07-04T04:10:48.516Z,78.06
2018-07-04T04:11:35.648Z,77.95
2018-07-04T04:12:35.703Z,77.75
2018-07-04T04:13:35.613Z,78.16
2018-07-04T04:14:35.639Z,78.16
2018-07-04T04:15:35.555Z,78.16
2018-07-04T04:16:39.449Z,78.27
2018-07-04T04:17:36.541Z,81.24
2018-07-04T04:18:35.469Z,80.52
2018-07-04T04:19:35.455Z,80.49
2018-07-04T04:20:36.340Z,79.77
2018-07-04T04:21:37.363Z,78.74
2018-07-04T04:22:35.441Z,79.56
2018-07-04T04:23:35.370Z,79.46
2018-07-04T04:24:35.379Z,79.36
2018-07-04T04:25:47.348Z,78.85
2018-07-04T04:26:35.505Z,78.23
2018-07-04T04:27:38.496Z,77.78
2018-07-04T04:28:35.710Z,78.19
2018-07-04T04:29:35.439Z,79.11
2018-07-04T04:30:36.324Z,80.14
2018-07-04T04:32:49.853Z,76.20
2018-07-04T04:34:43.274Z,76.51
2018-07-04T04:35:43.350Z,76.17
2018-07-04T04:36:42.974Z,78.42
2018-07-04T04:37:42.829Z,79.75
2018-07-04T04:38:42.879Z,79.04
2018-07-04T04:39:42.860Z,79.21
2018-07-04T04:40:42.817Z,77.87
2018-07-04T04:41:42.950Z,77.87
2018-07-04T04:42:43.278Z,78.19
2018-07-04T04:43:42.790Z,77.67
2018-07-04T04:44:42.828Z,78.70
2018-07-04T04:45:42.755Z,77.57
2018-07-04T04:48:27.413Z,77.84
2018-07-04T04:48:58.653Z,77.73
2018-07-04T04:49:57.601Z,76.27
2018-07-04T04:50:58.527Z,74.32
2018-07-04T04:51:59.171Z,72.89
2018-07-04T04:53:10.093Z,73.06
2018-07-04T04:53:57.609Z,73.68
2018-07-04T04:56:25.752Z,73.64
2018-07-04T04:57:17.372Z,74.56
2018-07-04T04:58:15.895Z,74.35
2018-07-04T04:59:15.848Z,74.56
2018-07-04T05:00:15.829Z,73.85
2018-07-04T05:03:55.140Z,72.38
2018-07-04T05:04:55.062Z,72.65
2018-07-04T05:05:55.065Z,73.16
2018-07-04T05:06:55.178Z,72.55
2018-07-04T05:07:55.107Z,72.45
2018-07-04T05:08:55.036Z,73.44
2018-07-04T05:09:54.943Z,73.23
2018-07-04T05:10:54.967Z,72.72
2018-07-04T05:11:54.922Z,72.28
2018-07-04T05:12:54.901Z,72.72
2018-07-04T05:13:55.019Z,72.62
2018-07-04T05:14:54.895Z,72.28
2018-07-04T05:15:54.890Z,72.28
2018-07-04T05:18:09.572Z,72.14
2018-07-04T05:19:07.621Z,72.52
2018-07-04T05:20:07.537Z,71.50
2018-07-04T05:21:07.397Z,70.95
2018-07-04T05:22:07.364Z,70.54
2018-07-04T05:23:07.356Z,69.63
2018-07-04T05:24:07.330Z,69.59
2018-07-04T05:25:07.356Z,69.32
2018-07-04T05:26:07.360Z,69.09
2018-07-04T05:27:07.327Z,70.41
2018-07-04T05:28:07.281Z,72.34
2018-07-04T05:29:07.290Z,73.77
2018-07-04T05:30:07.275Z,71.94
2018-07-04T05:31:07.322Z,71.50
2018-07-04T05:33:19.929Z,72.21
2018-07-04T05:34:19.712Z,70.99
2018-07-04T05:35:19.870Z,70.86
2018-07-04T05:36:19.609Z,69.84
2018-07-04T05:37:19.579Z,70.95
2018-07-04T05:38:19.556Z,71.73
2018-07-04T05:39:19.613Z,69.19
2018-07-04T05:40:19.627Z,69.87
2018-07-04T05:41:19.560Z,68.11
2018-07-04T05:42:19.565Z,70.14
2018-07-04T05:43:19.581Z,69.84
2018-07-04T05:44:19.530Z,68.99
2018-07-04T05:45:19.510Z,68.69
2018-07-04T05:47:36.102Z,67.03
2018-07-04T05:48:35.965Z,66.93
2018-07-04T05:49:35.873Z,67.03
2018-07-04T05:50:35.919Z,66.90
2018-07-04T05:51:35.793Z,65.88
2018-07-04T05:52:35.669Z,66.80
2018-07-04T05:53:35.706Z,66.77
2018-07-04T05:54:35.637Z,66.05
2018-07-04T05:55:35.638Z,66.46
2018-07-04T05:56:35.687Z,66.86
2018-07-04T05:57:35.608Z,66.74
2018-07-04T05:58:35.655Z,65.92
2018-07-04T05:59:35.589Z,66.13
2018-07-04T06:00:35.540Z,66.63
2018-07-04T06:02:48.427Z,66.97
2018-07-04T06:03:48.382Z,66.97
2018-07-04T06:04:48.284Z,66.57
2018-07-04T06:05:48.286Z,66.33
2018-07-04T06:06:48.261Z,65.42
2018-07-04T06:07:48.228Z,65.59
2018-07-04T06:08:48.220Z,63.95
2018-07-04T06:09:48.203Z,63.92
2018-07-04T06:10:48.180Z,63.48
2018-07-04T06:11:48.249Z,62.27
2018-07-04T06:12:48.281Z,62.77
2018-07-04T06:13:48.207Z,61.46
2018-07-04T06:14:48.205Z,61.46
2018-07-04T06:15:48.138Z,60.52
2018-07-04T06:18:19.160Z,59.18
2018-07-04T06:19:18.937Z,59.18
2018-07-04T06:20:19.132Z,56.35
2018-07-04T06:21:18.901Z,58.65
2018-07-04T06:22:18.845Z,59.05
2018-07-04T06:23:18.891Z,58.95
2018-07-04T06:24:18.792Z,57.23
2018-07-04T06:25:18.828Z,56.83
2018-07-04T06:26:18.756Z,56.23
2018-07-04T06:27:18.734Z,55.82
2018-07-04T06:28:18.759Z,56.32
2018-07-04T06:29:18.862Z,59.15
2018-07-04T06:30:18.737Z,56.43
2018-07-04T06:31:18.793Z,50.67
2018-07-04T06:33:31.964Z,48.33
2018-07-04T06:34:31.899Z,46.41
2018-07-04T06:35:31.841Z,48.93
2018-07-04T06:36:31.870Z,45.90
2018-07-04T06:37:31.788Z,48.13
2018-07-04T06:38:31.741Z,46.81
2018-07-04T06:39:31.754Z,46.61
2018-07-04T06:40:31.668Z,48.50
2018-07-04T06:41:31.645Z,47.40
2018-07-04T06:42:31.646Z,45.98
2018-07-04T06:43:31.736Z,44.87
2018-07-04T06:44:31.635Z,44.75
2018-07-04T06:45:31.601Z,44.95
2018-07-04T06:47:46.353Z,41.23
2018-07-04T06:48:45.745Z,43.38
2018-07-04T06:49:45.743Z,40.03
2018-07-04T06:50:45.687Z,46.00
2018-07-04T06:51:45.642Z,42.66
2018-07-04T06:52:45.697Z,39.83
2018-07-04T06:53:45.665Z,38.31
2018-07-04T06:54:45.659Z,36.19
2018-07-04T06:55:45.592Z,37.38
2018-07-04T06:57:02.395Z,35.36
2018-07-04T06:57:46.827Z,36.94
2018-07-04T06:58:46.974Z,34.91
2018-07-04T06:59:55.776Z,31.72
2018-07-04T07:00:45.772Z,31.60
2018-07-04T07:06:10.916Z,29.64
2018-07-04T07:08:32.308Z,31.41
2018-07-04T07:09:32.585Z,32.99
2018-07-04T07:10:33.150Z,32.89
2018-07-04T07:11:32.110Z,32.57
2018-07-04T07:12:34.019Z,32.67
2018-07-04T07:13:32.033Z,29.38
2018-07-04T07:14:33.990Z,27.00
2018-07-04T07:15:32.932Z,27.88
2018-07-04T07:16:34.575Z,27.19
2018-07-04T07:17:53.016Z,30.07
2018-07-04T07:18:32.030Z,31.26
2018-07-04T07:19:31.947Z,30.65
2018-07-04T07:20:34.457Z,31.44
2018-07-04T07:21:31.998Z,31.24
2018-07-04T07:22:32.532Z,28.05
2018-07-04T07:23:32.988Z,29.83
2018-07-04T07:24:33.401Z,31.32
2018-07-04T07:25:32.526Z,31.52
2018-07-04T07:26:46.936Z,31.72
2018-07-04T07:27:31.808Z,30.04
2018-07-04T07:28:33.412Z,29.72
2018-07-04T07:29:33.516Z,28.34
2018-07-04T07:30:31.893Z,27.04
2018-07-04T07:31:31.789Z,29.13
2018-07-04T07:33:12.017Z,30.02
2018-07-04T07:33:31.727Z,28.22
2018-07-04T07:34:31.733Z,30.90
2018-07-04T07:35:31.702Z,29.41
2018-07-04T07:36:32.015Z,27.73
2018-07-04T07:37:31.656Z,28.92
2018-07-04T07:38:31.654Z,25.65
2018-07-04T07:39:31.679Z,27.53
2018-07-04T07:40:31.639Z,25.74
2018-07-04T07:41:33.614Z,30.10
2018-07-04T07:42:32.608Z,32.39
2018-07-04T07:43:32.433Z,28.41
2018-07-04T07:44:33.622Z,29.00
2018-07-04T07:45:32.399Z,26.21
2018-07-04T07:46:31.605Z,27.01
2018-07-04T07:47:31.634Z,28.09
2018-07-04T07:48:31.560Z,27.72
2018-07-04T07:49:31.588Z,29.97
2018-07-04T07:50:31.559Z,25.43
2018-07-04T07:51:31.505Z,26.71
2018-07-04T07:52:31.494Z,29.99
2018-07-04T07:53:31.499Z,29.30
2018-07-04T07:54:31.532Z,29.68
2018-07-04T07:55:31.630Z,27.60
2018-07-04T07:56:31.449Z,31.56
2018-07-04T07:57:34.406Z,27.90
2018-07-04T07:58:31.943Z,26.91
2018-07-04T07:59:31.415Z,28.39
2018-07-04T08:00:31.415Z,31.26
2018-07-04T08:01:31.410Z,29.48
2018-07-04T08:02:31.399Z,27.80
2018-07-04T08:03:31.409Z,29.99
2018-07-04T08:04:31.346Z,27.50
2018-07-04T08:05:31.353Z,31.48
2018-07-04T08:06:31.446Z,29.20
2018-07-04T08:07:31.370Z,29.78
2018-07-04T08:08:31.333Z,31.26
2018-07-04T08:09:31.346Z,30.08
2018-07-04T08:10:31.357Z,30.08
2018-07-04T08:11:31.312Z,31.15
2018-07-04T08:12:31.456Z,30.97
2018-07-04T08:13:31.295Z,30.95
2018-07-04T08:14:31.300Z,33.23
2018-07-04T08:15:31.265Z,33.42
2018-07-04T08:16:32.271Z,27.79
2018-07-04T08:17:43.226Z,30.76
2018-07-04T08:18:31.402Z,33.41
2018-07-04T08:19:31.582Z,27.77
2018-07-04T08:20:31.482Z,29.55
2018-07-04T08:21:31.351Z,27.67
2018-07-04T08:22:31.300Z,29.44
2018-07-04T08:23:31.268Z,28.16
2018-07-04T08:24:31.282Z,27.56
2018-07-04T08:25:31.239Z,27.76
2018-07-04T08:26:31.185Z,29.44
2018-07-04T08:27:31.210Z,29.72
2018-07-04T08:28:31.273Z,29.52
2018-07-04T08:29:31.252Z,26.76
2018-07-04T08:30:41.209Z,26.66
2018-07-04T08:31:31.377Z,27.45
2018-07-04T08:32:31.204Z,28.94
2018-07-04T08:33:31.299Z,27.86
2018-07-04T08:34:31.082Z,30.61
2018-07-04T08:35:31.063Z,27.56
2018-07-04T08:36:31.030Z,28.85
2018-07-04T08:37:31.075Z,25.77
2018-07-04T08:38:31.004Z,29.43
2018-07-04T08:39:30.985Z,28.44
2018-07-04T08:40:30.984Z,29.21
2018-07-04T08:41:30.986Z,26.65
2018-07-04T08:42:30.957Z,27.93
2018-07-04T08:43:30.990Z,24.57
2018-07-04T08:44:30.945Z,26.36
2018-07-04T08:45:30.952Z,27.45
2018-07-04T08:46:30.907Z,26.15
2018-07-04T08:47:30.956Z,25.37
2018-07-04T08:48:30.883Z,27.64
2018-07-04T08:49:30.868Z,25.67
2018-07-04T08:50:30.895Z,26.66
2018-07-04T08:51:30.862Z,27.45
2018-07-04T08:52:30.915Z,26.76
2018-07-04T08:57:00.185Z,27.67
2018-07-04T08:58:00.150Z,27.87
2018-07-04T08:59:00.219Z,26.67
2018-07-04T08:59:59.997Z,27.86
2018-07-04T09:00:59.930Z,24.20
2018-07-04T09:01:59.935Z,23.11
2018-07-04T09:02:59.896Z,24.71
2018-07-04T09:03:59.895Z,25.70
2018-07-04T09:04:59.882Z,25.90
2018-07-04T09:05:59.896Z,24.51
2018-07-04T09:06:59.876Z,25.99
2018-07-04T09:07:59.906Z,28.17
2018-07-04T09:08:59.825Z,27.56
2018-07-04T09:09:59.834Z,27.94
2018-07-04T09:10:59.807Z,26.86
2018-07-04T09:11:59.849Z,25.09
2018-07-04T09:12:59.783Z,24.58
2018-07-04T09:13:59.776Z,28.65
2018-07-04T09:14:59.805Z,25.09
2018-07-04T09:15:59.751Z,25.70
2018-07-04T09:16:59.765Z,25.10
2018-07-04T09:17:59.734Z,24.54
2018-07-04T09:18:59.712Z,25.82
2018-07-04T09:19:59.727Z,25.63
2018-07-04T09:20:59.705Z,25.72
2018-07-04T09:21:59.682Z,24.24
2018-07-04T09:22:59.723Z,26.81
2018-07-04T09:23:59.676Z,24.24
2018-07-04T09:24:59.654Z,25.03
2018-07-04T09:25:59.648Z,28.49
2018-07-04T09:26:59.688Z,28.88
2018-07-04T09:27:59.639Z,25.40
2018-07-04T09:28:59.614Z,25.60
2018-07-04T09:29:59.619Z,26.19
2018-07-04T09:30:59.604Z,24.50
2018-07-04T09:31:59.582Z,24.11
2018-07-04T09:32:59.607Z,25.70
2018-07-04T09:33:59.580Z,27.67
2018-07-04T09:34:59.552Z,28.37
2018-07-04T09:35:59.541Z,29.24
2018-07-04T09:36:59.528Z,28.65
2018-07-04T09:37:59.561Z,26.66
2018-07-04T09:38:59.510Z,29.11
2018-07-04T09:39:59.553Z,26.43
2018-07-04T09:40:59.477Z,26.53
2018-07-04T09:41:59.473Z,24.95
2018-07-04T09:42:59.494Z,28.00
2018-07-04T09:43:59.492Z,28.79
2018-07-04T09:44:59.452Z,29.27
2018-07-04T09:45:59.470Z,24.24
2018-07-04T09:47:10.233Z,23.95
2018-07-04T09:47:59.411Z,25.23
2018-07-04T09:48:59.439Z,27.39
2018-07-04T09:49:59.407Z,28.68
2018-07-04T09:50:59.382Z,28.19
2018-07-04T09:51:59.440Z,27.87
2018-07-04T09:52:59.378Z,26.79
2018-07-04T09:53:59.422Z,28.08
2018-07-04T09:54:59.387Z,23.74
2018-07-04T09:55:59.330Z,27.76
2018-07-04T09:56:59.344Z,26.68
2018-07-04T09:58:00.231Z,24.71
2018-07-04T09:58:59.301Z,26.19
2018-07-04T09:59:59.319Z,22.15
2018-07-04T10:00:59.266Z,21.98
2018-07-04T10:02:20.367Z,23.30
2018-07-04T10:02:59.297Z,24.69
2018-07-04T10:03:59.256Z,25.67
2018-07-04T10:04:59.249Z,30.11
2018-07-04T10:05:59.294Z,28.82
2018-07-04T10:06:59.234Z,29.30
2018-07-04T10:07:59.216Z,28.00
2018-07-04T10:08:59.210Z,25.14
2018-07-04T10:09:59.230Z,26.82
2018-07-04T10:10:59.320Z,23.55
2018-07-04T10:11:59.179Z,24.84
2018-07-04T10:13:05.695Z,23.84
2018-07-04T10:13:59.176Z,24.33
2018-07-04T10:14:59.205Z,23.64
2018-07-04T10:15:59.106Z,24.92
2018-07-04T10:16:59.093Z,26.39
2018-07-04T10:17:59.088Z,27.57
2018-07-04T10:18:59.145Z,26.19
2018-07-04T10:19:59.079Z,28.36
2018-07-04T10:20:59.118Z,25.29
2018-07-04T10:21:59.049Z,27.56
2018-07-04T10:22:59.082Z,28.34
2018-07-04T10:23:59.065Z,25.96
2018-07-04T10:24:59.011Z,23.71
2018-07-04T10:25:59.020Z,24.90
2018-07-04T10:26:59.003Z,24.30
2018-07-04T10:27:59.028Z,24.21
2018-07-04T10:28:58.981Z,25.29
2018-07-04T10:29:58.996Z,26.46
2018-07-04T10:30:59.046Z,24.98
2018-07-04T10:31:58.960Z,23.30
2018-07-04T10:32:58.942Z,21.34
2018-07-04T10:33:58.923Z,21.67
2018-07-04T10:34:58.912Z,28.20
2018-07-04T10:35:59.015Z,28.97
2018-07-04T10:36:58.929Z,28.09
2018-07-04T10:37:58.880Z,27.68
2018-07-04T10:38:58.932Z,27.28
2018-07-04T10:39:58.895Z,26.79
2018-07-04T10:40:58.847Z,27.68
2018-07-04T10:41:59.008Z,29.34
2018-07-04T10:42:58.863Z,29.63
2018-07-04T10:43:58.862Z,26.98
2018-07-04T10:44:58.827Z,28.45
2018-07-04T10:45:58.812Z,29.34
2018-07-04T10:46:58.944Z,26.19
2018-07-04T10:47:59.771Z,26.47
2018-07-04T10:48:58.809Z,27.95
2018-07-04T10:49:58.751Z,27.44
2018-07-04T10:50:58.755Z,23.41
2018-07-04T10:51:58.724Z,27.05
2018-07-04T10:52:58.745Z,24.10
2018-07-04T10:53:58.704Z,28.63
2018-07-04T10:54:58.705Z,27.62
2018-07-04T10:55:58.743Z,28.22
2018-07-04T10:56:58.684Z,26.05
2018-07-04T10:57:58.689Z,27.32
2018-07-04T10:58:58.696Z,28.89
2018-07-04T10:59:58.653Z,29.19
2018-07-04T11:00:58.644Z,28.00
2018-07-04T11:01:58.656Z,26.72
2018-07-04T11:02:58.658Z,24.95
2018-07-04T11:03:58.622Z,26.32
2018-07-04T11:04:58.609Z,27.60
2018-07-04T11:05:58.586Z,25.83
2018-07-04T11:06:58.604Z,25.54
2018-07-04T11:07:58.620Z,25.44
2018-07-04T11:08:58.552Z,27.89
2018-07-04T11:09:58.578Z,24.93
2018-07-04T11:10:58.601Z,26.11
2018-07-04T11:11:59.301Z,25.72
2018-07-04T11:13:02.316Z,23.36
2018-07-04T11:13:59.586Z,24.36
2018-07-04T11:15:03.336Z,23.89
2018-07-04T11:15:58.488Z,27.64
2018-07-04T11:16:58.622Z,24.49
2018-07-04T11:18:00.418Z,22.14
2018-07-04T11:30:20.030Z,22.94
2018-07-04T11:36:07.150Z,31.29
2018-07-04T12:08:09.514Z,24.90
2018-07-04T12:10:35.973Z,24.30
2018-07-04T12:11:35.817Z,29.33
2018-07-04T12:19:43.274Z,23.66
2018-07-04T12:20:21.972Z,22.67
2018-07-04T12:30:13.982Z,25.10
2018-07-04T12:32:36.728Z,24.11
2018-07-04T12:39:25.399Z,21.69
2018-07-04T12:48:53.236Z,26.58
2018-07-04T12:49:52.656Z,23.92
2018-07-04T12:50:52.771Z,25.39
2018-07-04T13:01:59.298Z,25.39
2018-07-04T13:04:49.375Z,23.75
2018-07-04T13:07:08.645Z,22.31
2018-07-04T13:14:35.931Z,24.96
2018-07-04T13:17:27.652Z,20.92
2018-07-04T13:19:41.341Z,21.40
2018-07-04T13:20:41.144Z,27.00
2018-07-04T13:21:41.604Z,24.04
2018-07-04T13:22:41.198Z,25.32
2018-07-04T13:23:41.039Z,25.31
2018-07-04T13:24:41.022Z,27.95
2018-07-04T13:25:41.011Z,23.03
2018-07-04T13:26:40.972Z,24.31
2018-07-04T13:27:40.957Z,25.20
2018-07-04T13:29:12.874Z,25.98
2018-07-04T13:29:41.068Z,25.98
2018-07-04T13:33:22.899Z,25.78
2018-07-04T13:34:23.610Z,24.41
2018-07-04T13:35:22.648Z,26.37
2018-07-04T13:36:22.466Z,23.03
2018-07-04T13:37:22.512Z,22.64
2018-07-04T13:38:22.549Z,25.29
2018-07-04T13:39:22.419Z,23.63
2018-07-04T13:40:22.651Z,23.33
2018-07-04T13:41:22.634Z,22.55
2018-07-04T13:42:22.566Z,24.99
2018-07-04T13:43:22.497Z,25.98
2018-07-04T15:17:23.797Z,24.80
2018-07-04T15:18:11.523Z,23.72
